createdAt,value
2022-08-27T00:01:55.507Z,9.83
2022-08-27T00:04:24.118Z,9.07
2022-08-27T00:06:52.568Z,8.47
2022-08-27T00:09:26.927Z,8.73
2022-08-27T00:11:57.597Z,8.87
2022-08-27T00:14:26.446Z,7.77
2022-08-27T00:16:55.457Z,8.83
2022-08-27T00:19:24.003Z,9.57
2022-08-27T00:21:52.499Z,8.67
2022-08-27T00:24:20.918Z,8.83
2022-08-27T00:26:50.651Z,8.50
2022-08-27T00:29:20.536Z,8.50
2022-08-27T00:31:51.975Z,8.53
2022-08-27T00:34:23.057Z,8.83
2022-08-27T00:36:51.686Z,9.43
2022-08-27T00:39:20.543Z,8.57
2022-08-27T00:41:49.295Z,8.97
2022-08-27T00:44:19.898Z,8.87
2022-08-27T00:46:50.626Z,9.03
2022-08-27T00:49:21.969Z,7.80
2022-08-27T00:51:54.295Z,7.27
2022-08-27T00:54:22.770Z,7.30
2022-08-27T00:56:52.015Z,7.63
2022-08-27T00:59:25.714Z,7.53
2022-08-27T01:02:12.304Z,7.40
2022-08-27T01:04:43.442Z,7.67
2022-08-27T01:07:12.278Z,7.57
2022-08-27T01:09:41.244Z,7.20
2022-08-27T01:12:09.861Z,7.40
2022-08-27T01:14:39.754Z,8.00
2022-08-27T01:17:10.389Z,7.17
2022-08-27T01:19:45.424Z,7.40
2022-08-27T01:22:23.520Z,7.20
2022-08-27T01:24:55.868Z,7.33
2022-08-27T01:27:27.487Z,7.17
2022-08-27T01:29:55.960Z,7.93
2022-08-27T01:32:26.895Z,7.63
2022-08-27T01:34:55.440Z,7.30
2022-08-27T01:37:25.487Z,7.60
2022-08-27T01:39:59.109Z,6.77
2022-08-27T01:42:32.197Z,6.83
2022-08-27T01:45:05.599Z,7.33
2022-08-27T01:47:34.689Z,7.87
2022-08-27T01:50:03.346Z,7.20
2022-08-27T01:52:32.512Z,7.10
2022-08-27T01:55:02.410Z,7.30
2022-08-27T01:57:32.452Z,7.57
2022-08-27T02:00:01.058Z,7.80
2022-08-27T02:02:29.470Z,7.80
2022-08-27T02:04:57.965Z,7.83
2022-08-27T02:07:26.482Z,7.30
2022-08-27T02:09:54.867Z,8.13
2022-08-27T02:12:24.703Z,8.03
2022-08-27T02:14:53.208Z,8.00
2022-08-27T02:17:21.570Z,7.33
2022-08-27T02:19:49.953Z,7.87
2022-08-27T02:22:18.399Z,7.43
2022-08-27T02:24:47.134Z,6.90
2022-08-27T02:27:15.609Z,7.93
2022-08-27T02:29:47.771Z,7.37
2022-08-27T02:32:24.050Z,8.00
2022-08-27T02:35:00.977Z,8.27
2022-08-27T02:37:29.400Z,7.90
2022-08-27T02:39:57.779Z,7.57
2022-08-27T02:42:26.409Z,8.13
2022-08-27T02:44:56.217Z,8.60
2022-08-27T02:47:24.585Z,7.90
2022-08-27T02:49:53.306Z,7.77
2022-08-27T02:52:22.774Z,8.13
2022-08-27T02:54:54.057Z,8.23
2022-08-27T02:57:22.726Z,7.90
2022-08-27T02:59:51.225Z,7.23
2022-08-27T03:02:21.382Z,7.07
2022-08-27T03:04:51.411Z,8.33
2022-08-27T03:07:20.233Z,7.40
2022-08-27T03:09:48.705Z,7.70
2022-08-27T03:12:17.200Z,7.67
2022-08-27T03:14:46.014Z,6.63
2022-08-27T03:17:31.929Z,7.10
2022-08-27T03:20:02.257Z,6.93
2022-08-27T03:22:30.598Z,6.23
2022-08-27T03:24:59.044Z,6.60
2022-08-27T03:27:27.136Z,7.03
2022-08-27T03:29:55.555Z,6.97
2022-08-27T03:32:24.205Z,7.23
2022-08-27T03:34:52.522Z,7.30
2022-08-27T03:37:22.430Z,7.30
2022-08-27T03:39:50.805Z,6.87
2022-08-27T03:42:19.213Z,7.40
2022-08-27T03:44:47.429Z,7.03
2022-08-27T03:47:15.826Z,7.40
2022-08-27T03:49:44.209Z,7.87
2022-08-27T03:52:14.335Z,8.50
2022-08-27T03:54:44.174Z,7.40
2022-08-27T03:57:12.585Z,7.87
2022-08-27T03:59:40.970Z,7.03
2022-08-27T04:02:09.530Z,8.10
2022-08-27T04:04:38.283Z,7.83
2022-08-27T04:07:06.617Z,7.13
2022-08-27T04:09:35.053Z,7.90
2022-08-27T04:12:05.092Z,7.00
2022-08-27T04:14:34.104Z,6.87
2022-08-27T04:17:02.418Z,7.27
2022-08-27T04:19:33.188Z,8.03
2022-08-27T04:22:02.410Z,6.77
2022-08-27T04:24:32.426Z,6.93
2022-08-27T04:27:00.846Z,7.03
2022-08-27T04:29:31.781Z,6.43
2022-08-27T04:32:01.041Z,7.50
2022-08-27T04:34:29.349Z,7.00
2022-08-27T04:36:58.620Z,7.37
2022-08-27T04:39:28.032Z,6.73
2022-08-27T04:41:58.513Z,7.17
2022-08-27T04:44:27.437Z,7.13
2022-08-27T04:46:58.410Z,7.63
2022-08-27T04:49:27.952Z,8.20
2022-08-27T04:51:56.580Z,7.83
2022-08-27T04:54:33.001Z,7.97
2022-08-27T04:57:01.609Z,7.47
2022-08-27T04:59:30.007Z,7.20
2022-08-27T05:02:01.454Z,5.87
2022-08-27T05:04:33.290Z,5.77
2022-08-27T05:07:02.147Z,5.53
2022-08-27T05:09:30.463Z,5.57
2022-08-27T05:11:58.777Z,4.87
2022-08-27T05:14:30.073Z,5.80
2022-08-27T05:17:00.272Z,5.27
2022-08-27T05:19:28.667Z,4.70
2022-08-27T05:21:57.008Z,5.50
2022-08-27T05:24:25.303Z,5.40
2022-08-27T05:26:53.602Z,5.93
2022-08-27T05:29:22.269Z,5.97
2022-08-27T05:31:50.567Z,5.60
2022-08-27T05:34:24.738Z,5.87
2022-08-27T05:36:55.675Z,5.90
2022-08-27T05:39:24.376Z,5.07
2022-08-27T05:41:54.002Z,5.70
2022-08-27T05:44:40.954Z,5.23
2022-08-27T05:47:10.121Z,6.37
2022-08-27T05:49:40.038Z,5.80
2022-08-27T05:52:10.782Z,5.47
2022-08-27T05:54:39.762Z,5.60
2022-08-27T05:57:08.331Z,6.07
2022-08-27T05:59:54.319Z,6.17
2022-08-27T06:02:22.874Z,5.70
2022-08-27T06:04:53.561Z,6.10
2022-08-27T06:07:22.122Z,6.47
2022-08-27T06:09:50.495Z,6.20
2022-08-27T06:12:19.076Z,7.23
2022-08-27T06:14:55.249Z,6.43
2022-08-27T06:17:23.692Z,7.10
2022-08-27T06:19:53.756Z,7.27
2022-08-27T06:22:22.122Z,6.43
2022-08-27T06:24:50.572Z,7.27
2022-08-27T06:27:20.913Z,6.23
2022-08-27T06:29:49.285Z,6.50
2022-08-27T06:32:17.637Z,6.43
2022-08-27T06:34:46.004Z,6.23
2022-08-27T06:37:15.808Z,5.67
2022-08-27T06:39:44.154Z,6.40
2022-08-27T06:42:13.303Z,5.90
2022-08-27T06:44:41.692Z,6.50
2022-08-27T06:47:09.984Z,6.43
2022-08-27T06:49:40.850Z,6.10
2022-08-27T06:52:09.303Z,5.80
2022-08-27T06:54:40.327Z,5.70
2022-08-27T06:57:08.875Z,5.63
2022-08-27T06:59:37.211Z,5.87
2022-08-27T07:02:08.426Z,5.37
2022-08-27T07:04:37.101Z,5.40
2022-08-27T07:07:06.049Z,5.00
2022-08-27T07:09:36.056Z,5.97
2022-08-27T07:12:06.337Z,5.67
2022-08-27T07:14:38.108Z,6.10
2022-08-27T07:17:10.980Z,5.43
2022-08-27T07:19:41.507Z,6.10
2022-08-27T07:22:10.515Z,6.10
2022-08-27T07:24:39.265Z,6.80
2022-08-27T07:27:09.567Z,6.67
2022-08-27T07:29:38.041Z,6.97
2022-08-27T07:32:06.776Z,7.00
2022-08-27T07:34:35.317Z,7.27
2022-08-27T07:37:03.320Z,6.67
2022-08-27T07:39:31.834Z,6.67
2022-08-27T07:42:18.174Z,7.53
2022-08-27T07:44:48.002Z,7.23
2022-08-27T07:47:16.452Z,7.40
2022-08-27T07:49:44.849Z,7.23
2022-08-27T07:52:13.957Z,6.93
2022-08-27T07:54:42.363Z,7.37
2022-08-27T07:57:11.007Z,7.33
2022-08-27T07:59:39.528Z,7.23
2022-08-27T08:02:09.343Z,8.27
2022-08-27T08:04:37.707Z,7.70
2022-08-27T08:07:06.017Z,8.00
2022-08-27T08:09:34.815Z,7.40
2022-08-27T08:12:03.093Z,7.57
2022-08-27T08:14:32.142Z,7.17
2022-08-27T08:17:01.996Z,7.20
2022-08-27T08:19:33.514Z,6.17
2022-08-27T08:22:05.519Z,5.90
2022-08-27T08:24:34.378Z,5.87
2022-08-27T08:27:06.849Z,6.20
2022-08-27T08:29:35.903Z,5.83
2022-08-27T08:32:04.360Z,5.67
2022-08-27T08:34:36.869Z,5.90
2022-08-27T08:37:05.459Z,6.70
2022-08-27T08:39:33.860Z,6.77
2022-08-27T08:42:04.755Z,6.93
2022-08-27T08:44:38.240Z,7.00
2022-08-27T08:47:11.101Z,5.80
2022-08-27T08:49:52.689Z,6.23
2022-08-27T08:52:31.785Z,5.80
2022-08-27T08:55:14.994Z,6.50
2022-08-27T08:57:50.196Z,5.93
2022-08-27T09:00:19.601Z,5.60
2022-08-27T09:02:54.894Z,6.03
2022-08-27T09:05:27.595Z,5.90
2022-08-27T09:08:30.969Z,5.00
2022-08-27T09:11:00.529Z,4.97
2022-08-27T09:13:32.525Z,5.37
2022-08-27T09:16:03.754Z,4.53
2022-08-27T09:18:35.196Z,5.30
2022-08-27T09:21:15.352Z,5.30
2022-08-27T09:23:57.363Z,4.77
2022-08-27T09:26:28.102Z,5.10
2022-08-27T09:29:26.914Z,4.70
2022-08-27T09:32:03.205Z,5.13
2022-08-27T09:34:37.181Z,4.67
2022-08-27T09:37:09.962Z,5.07
2022-08-27T09:39:47.670Z,4.87
2022-08-27T09:42:32.251Z,4.93
2022-08-27T09:45:01.255Z,4.33
2022-08-27T09:47:29.708Z,5.07
2022-08-27T09:50:08.343Z,5.20
2022-08-27T09:52:49.001Z,4.70
2022-08-27T09:55:29.951Z,5.77
2022-08-27T09:57:59.098Z,5.73
2022-08-27T10:00:36.357Z,5.57
2022-08-27T10:03:05.255Z,4.97
2022-08-27T10:05:38.764Z,5.10
2022-08-27T10:08:19.046Z,4.60
2022-08-27T10:10:56.403Z,6.00
2022-08-27T10:13:29.218Z,5.47
2022-08-27T10:16:16.491Z,4.90
2022-08-27T10:18:55.394Z,4.97
2022-08-27T10:21:30.870Z,4.57
2022-08-27T10:24:16.474Z,4.77
2022-08-27T10:26:52.504Z,4.47
2022-08-27T10:29:31.762Z,5.50
2022-08-27T10:32:16.530Z,5.10
2022-08-27T10:34:57.964Z,4.90
2022-08-27T10:37:40.118Z,5.10
2022-08-27T10:40:17.974Z,4.70
2022-08-27T10:43:01.641Z,4.17
2022-08-27T10:45:42.605Z,4.40
2022-08-27T10:48:29.211Z,4.30
2022-08-27T10:51:08.908Z,4.73
2022-08-27T10:53:45.694Z,4.37
2022-08-27T10:56:30.592Z,4.47
2022-08-27T10:59:10.966Z,4.67
2022-08-27T11:01:48.981Z,4.63
2022-08-27T11:04:26.149Z,4.33
2022-08-27T11:06:59.287Z,4.67
2022-08-27T11:09:37.352Z,4.60
2022-08-27T11:12:15.099Z,4.93
2022-08-27T11:14:54.258Z,4.83
2022-08-27T11:17:32.242Z,4.00
2022-08-27T11:20:09.511Z,4.20
2022-08-27T11:22:43.501Z,4.30
2022-08-27T11:25:22.796Z,4.07
2022-08-27T11:27:53.993Z,3.90
2022-08-27T11:30:27.642Z,4.17
2022-08-27T11:33:05.029Z,4.50
2022-08-27T11:35:48.897Z,3.80
2022-08-27T11:38:38.293Z,4.17
2022-08-27T11:41:21.081Z,4.23
2022-08-27T11:43:53.902Z,4.10
2022-08-27T11:46:26.662Z,4.10
2022-08-27T11:49:00.440Z,3.63
2022-08-27T11:51:35.124Z,3.60
2022-08-27T11:54:07.779Z,3.73
2022-08-27T11:56:41.402Z,3.97
2022-08-27T11:59:23.764Z,3.67
2022-08-27T12:01:54.208Z,3.70
2022-08-27T12:04:45.334Z,3.30
2022-08-27T12:07:29.793Z,3.20
2022-08-27T12:10:30.391Z,3.57
2022-08-27T12:13:13.606Z,3.30
2022-08-27T12:16:04.918Z,3.33
2022-08-27T12:18:48.300Z,3.17
2022-08-27T12:21:27.648Z,3.33
2022-08-27T12:24:20.867Z,2.83
2022-08-27T12:26:57.722Z,3.60
2022-08-27T12:29:31.691Z,3.20
2022-08-27T12:32:25.171Z,3.60
2022-08-27T12:35:02.878Z,2.87
2022-08-27T12:37:36.996Z,3.27
2022-08-27T12:40:19.841Z,3.10
2022-08-27T12:42:51.880Z,3.30
2022-08-27T12:45:24.321Z,3.50
2022-08-27T12:51:25.808Z,3.73
2022-08-27T12:53:59.066Z,3.27
2022-08-27T12:56:42.356Z,3.33
2022-08-27T12:59:33.276Z,3.50
2022-08-27T13:02:15.011Z,3.23
2022-08-27T13:04:44.852Z,3.13
2022-08-27T13:07:14.553Z,3.47
2022-08-27T13:09:43.016Z,3.70
2022-08-27T13:12:18.797Z,3.23
2022-08-27T13:14:56.774Z,3.23
2022-08-27T13:17:26.482Z,3.90
2022-08-27T13:19:59.611Z,3.73
2022-08-27T13:22:32.222Z,3.60
2022-08-27T13:25:00.974Z,3.93
2022-08-27T13:27:33.611Z,4.17
2022-08-27T13:30:08.347Z,4.60
2022-08-27T13:32:40.145Z,4.03
2022-08-27T13:35:10.239Z,3.87
2022-08-27T13:37:46.586Z,3.40
2022-08-27T13:40:28.891Z,4.27
2022-08-27T13:42:59.203Z,3.40
2022-08-27T13:45:28.807Z,3.90
2022-08-27T13:48:00.116Z,3.43
2022-08-27T13:50:34.037Z,3.50
2022-08-27T13:53:29.151Z,3.40
2022-08-27T13:56:02.540Z,3.67
2022-08-27T13:58:38.340Z,3.57
2022-08-27T14:03:50.171Z,3.83
2022-08-27T14:06:25.897Z,3.33
2022-08-27T14:09:10.926Z,3.47
2022-08-27T14:11:39.723Z,3.63
2022-08-27T14:14:08.472Z,3.60
2022-08-27T14:16:36.831Z,3.30
2022-08-27T14:19:09.131Z,3.17
2022-08-27T14:21:40.568Z,3.20
2022-08-27T14:24:10.902Z,3.27
2022-08-27T14:26:39.433Z,3.00
2022-08-27T14:29:11.963Z,3.50
2022-08-27T14:31:40.905Z,3.77
2022-08-27T14:34:09.436Z,3.87
2022-08-27T14:36:43.890Z,3.77
2022-08-27T14:39:13.886Z,3.47
2022-08-27T14:41:42.288Z,3.43
2022-08-27T14:44:10.681Z,3.80
2022-08-27T14:46:41.409Z,3.40
2022-08-27T14:49:14.542Z,3.60
2022-08-27T14:51:46.138Z,3.50
2022-08-27T14:54:57.476Z,3.53
2022-08-27T15:00:12.028Z,3.10
2022-08-27T15:02:48.091Z,3.00
2022-08-27T15:05:16.965Z,3.10
2022-08-27T15:07:47.530Z,3.30
2022-08-27T15:10:16.009Z,3.17
2022-08-27T15:12:45.668Z,3.60
2022-08-27T15:15:15.341Z,2.87
2022-08-27T15:17:43.933Z,2.90
2022-08-27T15:20:20.094Z,3.13
2022-08-27T15:22:49.672Z,3.40
2022-08-27T15:25:18.637Z,2.83
2022-08-27T15:27:48.333Z,3.27
2022-08-27T15:30:18.681Z,3.40
2022-08-27T15:32:49.009Z,3.23
2022-08-27T15:35:19.796Z,3.10
2022-08-27T15:37:48.543Z,3.27
2022-08-27T15:40:19.162Z,3.07
2022-08-27T15:42:53.341Z,3.13
2022-08-27T15:45:21.858Z,3.07
2022-08-27T15:47:54.266Z,3.17
2022-08-27T15:50:22.681Z,2.83
2022-08-27T15:52:52.751Z,6.40
2022-08-27T15:55:24.130Z,4.03
2022-08-27T15:57:55.378Z,4.30
2022-08-27T16:00:24.260Z,3.60
2022-08-27T16:02:52.743Z,3.27
2022-08-27T16:05:22.952Z,4.33
2022-08-27T16:07:51.405Z,4.17
2022-08-27T16:10:19.809Z,4.10
2022-08-27T16:12:48.179Z,3.90
2022-08-27T16:15:18.372Z,4.17
2022-08-27T16:17:46.986Z,3.87
2022-08-27T16:20:17.215Z,4.30
2022-08-27T16:22:46.024Z,4.50
2022-08-27T16:25:18.478Z,4.33
2022-08-27T16:27:47.399Z,4.30
2022-08-27T16:30:15.992Z,4.37
2022-08-27T16:32:47.208Z,4.80
2022-08-27T16:35:15.996Z,5.00
2022-08-27T16:37:44.409Z,4.93
2022-08-27T16:40:13.326Z,4.80
2022-08-27T16:42:45.151Z,4.90
2022-08-27T16:45:14.425Z,4.63
2022-08-27T16:47:56.811Z,5.00
2022-08-27T16:50:35.637Z,4.73
2022-08-27T16:53:06.912Z,4.60
2022-08-27T16:55:35.433Z,5.77
2022-08-27T16:58:03.702Z,5.10
2022-08-27T17:00:32.572Z,4.30
2022-08-27T17:03:00.997Z,4.53
2022-08-27T17:05:33.831Z,4.90
2022-08-27T17:08:02.661Z,4.43
2022-08-27T17:10:35.716Z,4.00
2022-08-27T17:13:04.703Z,4.23
2022-08-27T17:15:33.103Z,4.37
2022-08-27T17:18:01.455Z,4.13
2022-08-27T17:20:31.680Z,3.93
2022-08-27T17:23:00.265Z,3.57
2022-08-27T17:25:30.375Z,3.63
2022-08-27T17:28:00.479Z,4.23
2022-08-27T17:30:29.068Z,5.73
2022-08-27T17:32:57.467Z,5.00
2022-08-27T17:35:25.557Z,4.63
2022-08-27T17:37:55.517Z,3.80
2022-08-27T17:40:23.666Z,3.77
2022-08-27T17:42:52.007Z,4.43
2022-08-27T17:45:20.336Z,4.33
2022-08-27T17:47:48.638Z,4.43
2022-08-27T17:50:17.131Z,4.00
2022-08-27T17:52:45.219Z,4.00
2022-08-27T17:55:14.837Z,4.50
2022-08-27T17:57:43.457Z,4.53
2022-08-27T18:00:13.250Z,4.87
2022-08-27T18:02:44.482Z,5.27
2022-08-27T18:05:13.343Z,4.87
2022-08-27T18:07:41.848Z,5.20
2022-08-27T18:10:11.247Z,5.67
2022-08-27T18:12:41.269Z,5.30
2022-08-27T18:15:14.523Z,5.47
2022-08-27T18:17:43.327Z,5.37
2022-08-27T18:20:14.084Z,5.83
2022-08-27T18:22:48.193Z,5.67
2022-08-27T18:25:18.034Z,6.47
2022-08-27T18:27:50.904Z,6.23
2022-08-27T18:30:19.344Z,6.63
2022-08-27T18:32:47.644Z,6.27
2022-08-27T18:35:18.416Z,6.43
2022-08-27T18:37:46.833Z,6.83
2022-08-27T18:40:18.716Z,7.17
2022-08-27T18:42:49.023Z,6.70
2022-08-27T18:45:20.948Z,6.43
2022-08-27T18:47:50.834Z,7.03
2022-08-27T18:50:20.133Z,6.60
2022-08-27T18:52:49.903Z,7.77
2022-08-27T18:55:22.189Z,7.53
2022-08-27T18:57:51.882Z,7.73
2022-08-27T19:00:21.185Z,7.37
2022-08-27T19:02:52.712Z,7.73
2022-08-27T19:05:22.744Z,7.63
2022-08-27T19:07:51.165Z,8.13
2022-08-27T19:10:19.407Z,8.07
2022-08-27T19:12:48.557Z,7.43
2022-08-27T19:15:18.723Z,7.17
2022-08-27T19:17:50.835Z,7.90
2022-08-27T19:20:19.857Z,8.30
2022-08-27T19:22:48.893Z,8.00
2022-08-27T19:25:18.050Z,7.40
2022-08-27T19:35:48.512Z,8.00
2022-08-27T19:38:16.800Z,8.73
2022-08-27T19:40:45.323Z,9.00
2022-08-27T19:43:13.765Z,9.97
2022-08-27T19:45:42.470Z,9.40
2022-08-27T19:48:12.526Z,9.43
2022-08-27T19:50:41.816Z,10.43
2022-08-27T19:53:37.304Z,9.37
2022-08-27T19:56:05.997Z,11.60
2022-08-27T19:58:34.540Z,11.83
2022-08-27T20:01:03.287Z,11.83
2022-08-27T20:03:31.741Z,11.67
2022-08-27T20:06:00.128Z,11.63
2022-08-27T20:08:30.004Z,10.70
2022-08-27T20:10:58.886Z,12.07
2022-08-27T20:13:32.380Z,11.17
2022-08-27T20:16:01.602Z,11.33
2022-08-27T20:18:30.047Z,11.23
2022-08-27T20:20:58.409Z,11.70
2022-08-27T20:23:35.564Z,12.03
2022-08-27T20:26:03.879Z,12.53
2022-08-27T20:28:40.268Z,11.47
2022-08-27T20:31:09.282Z,13.03
2022-08-27T20:33:38.131Z,11.93
2022-08-27T20:36:08.557Z,12.27
2022-08-27T20:38:38.231Z,12.77
2022-08-27T20:41:06.850Z,11.60
2022-08-27T20:43:35.601Z,11.67
2022-08-27T20:46:04.318Z,12.23
2022-08-27T20:48:34.176Z,12.60
2022-08-27T20:51:02.542Z,11.37
2022-08-27T20:53:31.249Z,11.53
2022-08-27T20:56:01.015Z,11.37
2022-08-27T20:58:47.046Z,11.63
2022-08-27T21:01:15.637Z,13.30
2022-08-27T21:03:43.945Z,14.37
2022-08-27T21:06:13.005Z,12.60
2022-08-27T21:08:42.035Z,11.03
2022-08-27T21:11:13.795Z,11.20
2022-08-27T21:13:55.277Z,9.97
2022-08-27T21:16:24.802Z,6.97
2022-08-27T21:18:53.697Z,5.17
2022-08-27T21:21:23.283Z,4.93
2022-08-27T21:23:51.845Z,4.80
2022-08-27T21:26:22.854Z,3.83
2022-08-27T21:28:55.650Z,4.00
2022-08-27T21:31:24.936Z,3.87
2022-08-27T21:33:55.477Z,4.20
2022-08-27T21:36:33.487Z,3.47
2022-08-27T21:39:03.624Z,3.67
2022-08-27T21:41:37.263Z,3.33
2022-08-27T21:44:06.175Z,3.30
2022-08-27T21:46:34.901Z,3.53
2022-08-27T21:49:03.510Z,2.73
2022-08-27T21:51:32.117Z,2.30
2022-08-27T21:54:01.360Z,2.30
2022-08-27T21:56:30.299Z,2.57
2022-08-27T21:59:00.576Z,2.10
2022-08-27T22:01:29.275Z,2.63
2022-08-27T22:03:58.005Z,2.83
2022-08-27T22:06:26.605Z,2.53
2022-08-27T22:08:55.074Z,2.53
2022-08-27T22:11:25.055Z,2.80
2022-08-27T22:13:53.764Z,2.23
2022-08-27T22:16:24.080Z,2.37
2022-08-27T22:18:54.679Z,2.27
2022-08-27T22:21:23.834Z,2.50
2022-08-27T22:23:52.513Z,2.40
2022-08-27T22:26:21.331Z,2.37
2022-08-27T22:28:50.196Z,2.67
2022-08-27T22:31:18.851Z,2.57
2022-08-27T22:33:49.396Z,2.80
2022-08-27T22:36:18.371Z,2.77
2022-08-27T22:38:48.116Z,3.00
2022-08-27T22:41:18.530Z,2.73
2022-08-27T22:43:47.739Z,3.03
2022-08-27T22:46:17.358Z,2.93
2022-08-27T22:48:46.218Z,3.00
2022-08-27T22:51:16.417Z,13.10
2022-08-27T22:53:46.553Z,3.47
2022-08-27T22:56:16.042Z,2.73
2022-08-27T22:58:46.339Z,2.57
2022-08-27T23:01:15.238Z,2.83
2022-08-27T23:03:43.926Z,2.57
2022-08-27T23:06:12.808Z,3.30
2022-08-27T23:08:42.789Z,2.77
2022-08-27T23:11:13.318Z,2.87
2022-08-27T23:13:42.135Z,3.07
2022-08-27T23:16:11.649Z,2.70
2022-08-27T23:18:40.783Z,2.77
2022-08-27T23:21:09.730Z,2.57
2022-08-27T23:23:38.694Z,2.90
2022-08-27T23:26:27.192Z,2.63
2022-08-27T23:28:59.302Z,2.80
2022-08-27T23:31:29.887Z,2.50
2022-08-27T23:33:59.517Z,2.60
2022-08-27T23:36:29.513Z,2.83
2022-08-27T23:39:00.040Z,2.70
2022-08-27T23:41:30.143Z,2.73
2022-08-27T23:43:59.761Z,2.97
2022-08-27T23:46:28.776Z,2.63
2022-08-27T23:48:57.622Z,3.20
2022-08-27T23:51:26.935Z,3.33
2022-08-27T23:53:55.805Z,2.73
2022-08-27T23:56:30.022Z,2.80
2022-08-27T23:59:01.108Z,2.83
